Terminal Aerodrome Forecast
Issued by NWS

Home | Current Version | Previous Version | Text Only | Print | Product List | Glossary On
Versions: 1 2 3 4 5 6 7 8 9 10 11 12 13
000
FTUS42 KTAE 292321
TAFABY
TAF
KABY 292321Z 3000/3024 10006KT P6SM SCT030 BKN050
     FM300800 00000KT 5SM BR BKN007
     FM301400 08004KT P6SM SCT010 BKN100
     FM301800 09005KT P6SM VCTS SCT040CB=

USA.gov is the U.S. government's official web portal to all federal, state and local government web resources and services.